Time;durP1;ratioP1;P1;durP2;ratioP2;P2;SDS_P1;SDS_P2;PMS_P1;PMS_P2;Temp;Humidity;BMP_temperature;BMP_pressure;BME280_temperature;BME280_humidity;BME280_pressure;Samples;Min_cycle;Max_cycle;Signal;HPM_P1;HPM_P2
2023/07/27 00:00:16;;;;;;;3.40;2.30;;;;;;;;;;513741;28;1324;-76
2023/07/27 00:00:32;;;;;;;4.05;2.33;;;;;;;;;;514358;28;1516;-76
2023/07/27 00:00:47;;;;;;;3.47;2.10;;;;;;;;;;514098;28;1183;-75
2023/07/27 00:01:03;;;;;;;3.03;1.97;;;;;;;;;;513502;28;1347;-76
2023/07/27 00:01:19;;;;;;;3.65;2.20;;;;;;;;;;513505;28;1278;-76
2023/07/27 00:01:34;;;;;;;4.07;2.30;;;;;;;;;;514097;28;966;-76
2023/07/27 00:01:50;;;;;;;3.80;2.20;;;;;;;;;;510983;28;1223;-76
2023/07/27 00:02:06;;;;;;;3.75;2.22;;;;;;;;;;509898;28;1136;-76
2023/07/27 00:02:25;;;;;;;3.63;2.25;;;;;;;;;;511167;28;1395;-75
2023/07/27 00:02:41;;;;;;;4.40;2.30;;;;;;;;;;510853;28;1470;-75
2023/07/27 00:02:56;;;;;;;4.30;2.30;;;;;;;;;;510560;28;1414;-76
2023/07/27 00:03:12;;;;;;;3.20;2.10;;;;;;;;;;509703;28;1117;-75
2023/07/27 00:03:27;;;;;;;2.92;2.00;;;;;;;;;;511267;28;1231;-75
2023/07/27 00:03:43;;;;;;;3.03;2.07;;;;;;;;;;513960;28;1296;-76
2023/07/27 00:04:01;;;;;;;3.25;2.15;;;;;;;;;;513315;28;1302;-76
2023/07/27 00:04:18;;;;;;;4.45;2.20;;;;;;;;;;512986;28;1538;-75
2023/07/27 00:04:34;;;;;;;4.13;2.25;;;;;;;;;;513196;28;1292;-75
2023/07/27 00:04:52;;;;;;;2.88;2.17;;;;;;;;;;510450;28;1493;-75
2023/07/27 00:05:08;;;;;;;2.58;2.08;;;;;;;;;;512858;28;1014;-75
2023/07/27 00:05:26;;;;;;;2.70;2.10;;;;;;;;;;511101;28;1275;-75
2023/07/27 00:05:42;;;;;;;3.17;2.30;;;;;;;;;;511433;28;1538;-76
2023/07/27 00:05:58;;;;;;;3.47;2.33;;;;;;;;;;513884;28;1274;-76
2023/07/27 00:06:17;;;;;;;3.33;2.13;;;;;;;;;;512874;28;1338;-76
2023/07/27 00:06:32;;;;;;;3.28;2.20;;;;;;;;;;513244;28;1173;-75
2023/07/27 00:06:49;;;;;;;3.37;2.20;;;;;;;;;;513591;28;1359;-76
2023/07/27 00:07:05;;;;;;;3.47;2.30;;;;;;;;;;512642;28;1572;-75
2023/07/27 00:07:20;;;;;;;3.00;2.22;;;;;;;;;;514570;28;1274;-76
2023/07/27 00:07:36;;;;;;;2.47;2.00;;;;;;;;;;514094;28;1386;-76
2023/07/27 00:07:52;;;;;;;2.22;2.00;;;;;;;;;;512298;28;1273;-75
2023/07/27 00:08:08;;;;;;;3.08;2.28;;;;;;;;;;512450;28;1323;-77
2023/07/27 00:08:26;;;;;;;3.78;2.30;;;;;;;;;;513390;28;1193;-76
2023/07/27 00:08:42;;;;;;;3.92;2.20;;;;;;;;;;514030;28;1449;-76
2023/07/27 00:08:57;;;;;;;4.07;2.33;;;;;;;;;;515483;28;1304;-76
2023/07/27 00:09:13;;;;;;;3.37;2.23;;;;;;;;;;513132;28;1977;-75
2023/07/27 00:09:29;;;;;;;2.53;2.00;;;;;;;;;;515062;28;1421;-76
2023/07/27 00:09:44;;;;;;;4.00;2.07;;;;;;;;;;514784;28;898;-76
2023/07/27 00:10:00;;;;;;;4.53;2.13;;;;;;;;;;512464;28;1608;-75
2023/07/27 00:10:15;;;;;;;3.78;2.20;;;;;;;;;;515078;28;1282;-76
2023/07/27 00:10:31;;;;;;;3.60;2.20;;;;;;;;;;515436;28;1235;-75
2023/07/27 00:11:07;;;;;;;3.75;2.00;;;;;;;;;;516514;28;1575;-76
2023/07/27 00:11:24;;;;;;;3.85;2.20;;;;;;;;;;515933;28;1166;-75
2023/07/27 00:11:39;;;;;;;4.03;2.20;;;;;;;;;;516250;28;995;-76
2023/07/27 00:11:55;;;;;;;3.60;2.07;;;;;;;;;;515833;28;1162;-76
2023/07/27 00:12:14;;;;;;;4.43;2.20;;;;;;;;;;513173;28;1423;-76
2023/07/27 00:12:29;;;;;;;4.20;2.30;;;;;;;;;;514397;28;964;-75
2023/07/27 00:13:05;;;;;;;3.45;2.10;;;;;;;;;;513919;28;1250;-76
2023/07/27 00:13:23;;;;;;;4.30;2.20;;;;;;;;;;515693;28;1111;-75
2023/07/27 00:13:39;;;;;;;3.08;1.95;;;;;;;;;;514455;28;1316;-75
2023/07/27 00:13:55;;;;;;;2.60;2.00;;;;;;;;;;513892;28;1314;-77
2023/07/27 00:14:31;;;;;;;3.70;2.10;;;;;;;;;;512959;28;1313;-76
2023/07/27 00:14:46;;;;;;;5.32;2.15;;;;;;;;;;515541;28;1370;-75
2023/07/27 00:15:03;;;;;;;3.07;1.97;;;;;;;;;;516159;28;1265;-75
2023/07/27 00:15:22;;;;;;;4.68;2.28;;;;;;;;;;516076;28;1371;-76
2023/07/27 00:15:37;;;;;;;4.00;2.40;;;;;;;;;;516811;28;1471;-75
2023/07/27 00:16:13;;;;;;;4.80;2.40;;;;;;;;;;514059;28;1256;-76
2023/07/27 00:16:37;;;;;;;3.78;2.10;;;;;;;;;;513128;28;1364;-75
2023/07/27 00:16:56;;;;;;;3.90;2.50;;;;;;;;;;513810;28;1073;-76
2023/07/27 00:17:11;;;;;;;3.42;2.28;;;;;;;;;;515525;28;1342;-76
2023/07/27 00:17:27;;;;;;;4.80;2.17;;;;;;;;;;514505;28;1293;-76
2023/07/27 00:17:42;;;;;;;5.75;2.30;;;;;;;;;;514819;28;1219;-76
2023/07/27 00:17:58;;;;;;;4.17;2.20;;;;;;;;;;517384;28;1160;-76
2023/07/27 00:18:14;;;;;;;2.40;2.00;;;;;;;;;;514813;28;1334;-76
2023/07/27 00:18:50;;;;;;;2.78;2.17;;;;;;;;;;516210;28;1101;-76
2023/07/27 00:19:14;;;;;;;3.75;2.47;;;;;;;;;;514022;28;1437;-76
2023/07/27 00:19:30;;;;;;;5.18;2.50;;;;;;;;;;514664;28;1291;-76
2023/07/27 00:19:45;;;;;;;5.37;2.50;;;;;;;;;;514058;28;1283;-76
2023/07/27 00:20:01;;;;;;;4.43;2.33;;;;;;;;;;514612;28;1254;-75
2023/07/27 00:20:40;;;;;;;3.42;2.25;;;;;;;;;;514325;28;1359;-74
2023/07/27 00:20:55;;;;;;;2.80;2.10;;;;;;;;;;513567;28;1390;-75
2023/07/27 00:21:11;;;;;;;2.65;2.10;;;;;;;;;;513469;28;1278;-75
2023/07/27 00:21:27;;;;;;;2.92;2.17;;;;;;;;;;514065;28;1571;-74
2023/07/27 00:21:42;;;;;;;2.77;2.17;;;;;;;;;;514228;28;1281;-76
2023/07/27 00:21:58;;;;;;;2.88;2.20;;;;;;;;;;515155;28;1275;-75
2023/07/27 00:22:13;;;;;;;3.65;2.25;;;;;;;;;;517128;28;1347;-76
2023/07/27 00:22:29;;;;;;;3.17;1.90;;;;;;;;;;515330;28;1287;-75
2023/07/27 00:22:45;;;;;;;2.58;1.65;;;;;;;;;;513902;28;1512;-76
2023/07/27 00:23:01;;;;;;;2.58;1.60;;;;;;;;;;514571;28;1292;-75
2023/07/27 00:23:39;;;;;;;2.93;1.70;;;;;;;;;;514485;28;1307;-76
2023/07/27 00:24:15;;;;;;;3.65;1.90;;;;;;;;;;511100;28;1437;-75
2023/07/27 00:24:30;;;;;;;3.45;1.98;;;;;;;;;;512624;28;1437;-76
2023/07/27 00:24:46;;;;;;;3.00;2.10;;;;;;;;;;511528;28;1332;-76
2023/07/27 00:25:02;;;;;;;3.00;2.10;;;;;;;;;;513617;28;1144;-75
2023/07/27 00:25:18;;;;;;;2.47;1.98;;;;;;;;;;515779;28;1092;-77
2023/07/27 00:25:33;;;;;;;2.08;1.80;;;;;;;;;;513459;28;1452;-75
2023/07/27 00:25:49;;;;;;;2.07;1.87;;;;;;;;;;513600;28;1215;-75
2023/07/27 00:26:04;;;;;;;2.00;1.80;;;;;;;;;;512478;28;1358;-76
2023/07/27 00:26:23;;;;;;;2.20;1.80;;;;;;;;;;512241;28;1093;-76
2023/07/27 00:26:41;;;;;;;3.28;2.13;;;;;;;;;;512091;28;1147;-75
2023/07/27 00:26:57;;;;;;;3.92;2.20;;;;;;;;;;513416;28;1520;-76
2023/07/27 00:27:41;;;;;;;3.80;2.13;;;;;;;;;;514060;28;1171;-75
2023/07/27 00:27:57;;;;;;;3.60;2.20;;;;;;;;;;514929;28;1338;-76
2023/07/27 00:28:15;;;;;;;2.88;2.10;;;;;;;;;;514800;28;1247;-76
2023/07/27 00:28:31;;;;;;;2.95;2.15;;;;;;;;;;512715;28;1427;-76
2023/07/27 00:28:47;;;;;;;3.65;2.20;;;;;;;;;;514245;28;946;-75
2023/07/27 00:29:02;;;;;;;3.47;2.20;;;;;;;;;;514944;28;981;-76
2023/07/27 00:29:19;;;;;;;3.28;2.10;;;;;;;;;;515263;28;2003;-76
2023/07/27 00:29:34;;;;;;;4.22;2.10;;;;;;;;;;513752;28;1196;-76
2023/07/27 00:29:50;;;;;;;4.38;2.20;;;;;;;;;;514320;28;1263;-75
2023/07/27 00:30:06;;;;;;;4.50;2.20;;;;;;;;;;515026;28;986;-76
2023/07/27 00:30:22;;;;;;;4.18;2.10;;;;;;;;;;514665;28;1424;-75
2023/07/27 00:30:37;;;;;;;3.50;2.00;;;;;;;;;;515505;28;1439;-75
2023/07/27 00:30:53;;;;;;;3.40;2.10;;;;;;;;;;515317;28;1514;-75
2023/07/27 00:31:09;;;;;;;4.13;2.30;;;;;;;;;;515320;28;1340;-76
2023/07/27 00:31:24;;;;;;;3.97;2.20;;;;;;;;;;515466;28;1333;-76
2023/07/27 00:31:40;;;;;;;3.25;2.10;;;;;;;;;;513618;28;1015;-75
2023/07/27 00:31:55;;;;;;;3.83;2.23;;;;;;;;;;512676;28;1390;-75
2023/07/27 00:32:11;;;;;;;3.70;2.20;;;;;;;;;;512212;28;1330;-75
2023/07/27 00:32:26;;;;;;;3.87;2.10;;;;;;;;;;513670;28;1598;-76
2023/07/27 00:32:45;;;;;;;4.03;2.00;;;;;;;;;;516053;28;1315;-75
2023/07/27 00:33:01;;;;;;;3.55;2.10;;;;;;;;;;517817;28;1447;-76
2023/07/27 00:33:16;;;;;;;4.40;2.20;;;;;;;;;;515507;28;1182;-76
2023/07/27 00:33:32;;;;;;;3.78;2.05;;;;;;;;;;515932;28;1013;-75
2023/07/27 00:33:48;;;;;;;3.67;2.20;;;;;;;;;;516357;28;1294;-76
2023/07/27 00:34:03;;;;;;;4.15;2.10;;;;;;;;;;515716;28;1290;-76
2023/07/27 00:34:19;;;;;;;2.83;1.90;;;;;;;;;;515948;28;1202;-75
2023/07/27 00:34:34;;;;;;;2.43;2.00;;;;;;;;;;516031;28;948;-75
2023/07/27 00:34:51;;;;;;;3.53;2.10;;;;;;;;;;514075;28;1393;-75
2023/07/27 00:35:10;;;;;;;3.78;2.10;;;;;;;;;;515418;28;1343;-75
2023/07/27 00:35:25;;;;;;;2.70;2.10;;;;;;;;;;515864;28;1517;-75
2023/07/27 00:35:41;;;;;;;3.30;2.10;;;;;;;;;;513215;28;1437;-75
2023/07/27 00:35:58;;;;;;;3.87;2.20;;;;;;;;;;513766;28;1247;-75
2023/07/27 00:36:14;;;;;;;3.58;2.22;;;;;;;;;;514699;28;1369;-75
2023/07/27 00:36:29;;;;;;;3.38;2.17;;;;;;;;;;516645;28;1370;-76
2023/07/27 00:36:48;;;;;;;3.75;2.22;;;;;;;;;;514521;28;1354;-76
2023/07/27 00:37:04;;;;;;;3.42;2.33;;;;;;;;;;514749;28;1397;-76
2023/07/27 00:37:23;;;;;;;3.38;2.30;;;;;;;;;;514346;28;1230;-77
2023/07/27 00:37:38;;;;;;;3.90;2.22;;;;;;;;;;512945;28;1456;-77
2023/07/27 00:37:54;;;;;;;4.10;2.20;;;;;;;;;;512916;28;1327;-76
2023/07/27 00:38:09;;;;;;;3.13;2.13;;;;;;;;;;513460;28;1603;-75
2023/07/27 00:38:26;;;;;;;3.17;2.03;;;;;;;;;;514156;28;1270;-75
2023/07/27 00:38:42;;;;;;;3.13;2.28;;;;;;;;;;516814;28;1350;-76
2023/07/27 00:38:57;;;;;;;3.60;2.30;;;;;;;;;;514151;28;1387;-76
2023/07/27 00:39:13;;;;;;;4.05;2.20;;;;;;;;;;515234;28;1348;-75
2023/07/27 00:39:29;;;;;;;4.95;2.25;;;;;;;;;;515814;28;1401;-76
2023/07/27 00:39:44;;;;;;;4.80;2.17;;;;;;;;;;514042;28;1462;-76
2023/07/27 00:40:00;;;;;;;3.22;1.98;;;;;;;;;;513510;28;1239;-76
2023/07/27 00:40:17;;;;;;;2.60;2.20;;;;;;;;;;514585;28;1247;-76
2023/07/27 00:40:33;;;;;;;3.58;2.38;;;;;;;;;;515096;28;954;-75
2023/07/27 00:40:49;;;;;;;3.57;2.30;;;;;;;;;;514841;28;1217;-74
2023/07/27 00:41:05;;;;;;;3.40;2.30;;;;;;;;;;516085;28;1271;-76
2023/07/27 00:41:20;;;;;;;3.38;2.17;;;;;;;;;;518956;28;1336;-75
2023/07/27 00:41:36;;;;;;;2.60;2.00;;;;;;;;;;520263;28;1238;-75
2023/07/27 00:41:52;;;;;;;2.85;2.05;;;;;;;;;;519080;28;1266;-75
2023/07/27 00:42:08;;;;;;;3.97;2.20;;;;;;;;;;516179;28;1214;-75
2023/07/27 00:42:23;;;;;;;5.35;2.33;;;;;;;;;;514578;28;1541;-76
2023/07/27 00:42:39;;;;;;;4.85;2.30;;;;;;;;;;513826;28;1282;-76
2023/07/27 00:42:54;;;;;;;3.60;2.10;;;;;;;;;;511462;28;1357;-76
2023/07/27 00:43:10;;;;;;;3.40;2.10;;;;;;;;;;511468;28;1271;-75
2023/07/27 00:43:25;;;;;;;3.13;2.17;;;;;;;;;;511808;28;1325;-74
2023/07/27 00:43:41;;;;;;;4.43;2.15;;;;;;;;;;512634;28;1398;-75
2023/07/27 00:44:00;;;;;;;4.67;2.10;;;;;;;;;;513009;28;1250;-75
2023/07/27 00:44:16;;;;;;;2.85;2.20;;;;;;;;;;513898;28;1327;-76
2023/07/27 00:44:31;;;;;;;3.38;2.25;;;;;;;;;;513693;28;1600;-77
2023/07/27 00:44:47;;;;;;;3.78;2.40;;;;;;;;;;512180;28;1346;-76
2023/07/27 00:45:03;;;;;;;3.50;2.40;;;;;;;;;;512794;28;1133;-76
2023/07/27 00:45:39;;;;;;;4.05;2.25;;;;;;;;;;513358;28;954;-76
2023/07/27 00:45:55;;;;;;;3.22;2.15;;;;;;;;;;513926;28;1246;-75
2023/07/27 00:46:31;;;;;;;3.83;2.20;;;;;;;;;;513409;28;1329;-75
2023/07/27 00:46:47;;;;;;;4.07;2.10;;;;;;;;;;517718;28;1094;-76
2023/07/27 00:47:04;;;;;;;2.85;2.03;;;;;;;;;;516843;28;1321;-75
2023/07/27 00:47:19;;;;;;;3.42;2.10;;;;;;;;;;513772;28;1180;-76
2023/07/27 00:47:35;;;;;;;4.43;2.30;;;;;;;;;;512600;28;1030;-76
2023/07/27 00:47:51;;;;;;;4.03;2.23;;;;;;;;;;513030;28;1354;-76
2023/07/27 00:48:09;;;;;;;4.95;2.30;;;;;;;;;;513869;28;1318;-76
2023/07/27 00:48:24;;;;;;;5.30;2.38;;;;;;;;;;513510;28;1152;-75
2023/07/27 00:48:40;;;;;;;2.95;2.05;;;;;;;;;;513951;28;1261;-76
2023/07/27 00:48:56;;;;;;;2.70;2.00;;;;;;;;;;512738;28;1429;-76
2023/07/27 00:49:14;;;;;;;2.83;1.98;;;;;;;;;;512171;28;1914;-75
2023/07/27 00:49:30;;;;;;;2.90;2.00;;;;;;;;;;512619;28;1310;-75
2023/07/27 00:50:06;;;;;;;3.00;2.15;;;;;;;;;;513160;28;1299;-75
2023/07/27 00:50:22;;;;;;;3.57;2.30;;;;;;;;;;512739;28;1382;-75
2023/07/27 00:50:38;;;;;;;3.07;2.13;;;;;;;;;;514404;28;1469;-75
2023/07/27 00:50:54;;;;;;;4.03;2.15;;;;;;;;;;514639;28;1422;-75
2023/07/27 00:51:33;;;;;;;3.95;2.30;;;;;;;;;;514397;28;1442;-75
2023/07/27 00:51:49;;;;;;;2.58;2.20;;;;;;;;;;513698;28;1290;-76
2023/07/27 00:52:07;;;;;;;3.47;2.30;;;;;;;;;;513337;28;1273;-75
2023/07/27 00:52:23;;;;;;;3.97;2.30;;;;;;;;;;514388;28;1429;-75
2023/07/27 00:53:40;;;;;;;3.67;2.40;;;;;;;;;;515153;28;1371;-75
2023/07/27 00:53:55;;;;;;;3.15;2.10;;;;;;;;;;519076;28;1156;-76
2023/07/27 00:54:11;;;;;;;3.42;2.10;;;;;;;;;;517665;28;1297;-75
2023/07/27 00:54:27;;;;;;;4.18;2.33;;;;;;;;;;517779;28;1199;-76
2023/07/27 00:54:43;;;;;;;3.90;2.30;;;;;;;;;;517642;28;1304;-76
2023/07/27 00:54:59;;;;;;;4.07;2.23;;;;;;;;;;517617;28;1159;-75
2023/07/27 00:55:14;;;;;;;4.53;2.15;;;;;;;;;;515578;28;1263;-76
2023/07/27 00:55:31;;;;;;;4.25;2.17;;;;;;;;;;512877;28;1198;-75
2023/07/27 00:56:07;;;;;;;3.30;2.10;;;;;;;;;;514329;28;1389;-76
2023/07/27 00:56:22;;;;;;;3.97;2.20;;;;;;;;;;511323;28;1486;-74
2023/07/27 00:56:58;;;;;;;3.00;2.03;;;;;;;;;;513934;28;1406;-76
2023/07/27 00:57:25;;;;;;;2.78;2.15;;;;;;;;;;514927;28;1341;-75
2023/07/27 00:57:41;;;;;;;6.20;2.40;;;;;;;;;;514151;28;1310;-76
2023/07/27 00:57:57;;;;;;;4.07;2.38;;;;;;;;;;513747;28;1333;-75
2023/07/27 00:58:13;;;;;;;2.90;2.20;;;;;;;;;;511783;28;1457;-76
2023/07/27 00:58:29;;;;;;;3.70;2.20;;;;;;;;;;514295;28;1401;-76
2023/07/27 00:58:46;;;;;;;3.70;2.20;;;;;;;;;;515369;28;915;-75
2023/07/27 00:59:02;;;;;;;3.13;2.38;;;;;;;;;;513387;28;1374;-76
2023/07/27 00:59:18;;;;;;;3.63;2.30;;;;;;;;;;514913;28;1281;-75
2023/07/27 00:59:34;;;;;;;3.73;2.10;;;;;;;;;;516498;28;1208;-76
2023/07/27 00:59:51;;;;;;;3.28;2.05;;;;;;;;;;515195;28;1552;-76
2023/07/27 01:00:07;;;;;;;2.45;2.00;;;;;;;;;;512861;28;1231;-75
2023/07/27 01:00:23;;;;;;;2.60;2.10;;;;;;;;;;512514;28;1266;-75
2023/07/27 01:00:44;;;;;;;3.40;2.40;;;;;;;;;;515748;28;1461;-76
2023/07/27 01:01:02;;;;;;;3.92;2.30;;;;;;;;;;515241;28;966;-75
2023/07/27 01:01:19;;;;;;;4.50;2.20;;;;;;;;;;514772;28;1567;-76
2023/07/27 01:01:35;;;;;;;3.58;2.10;;;;;;;;;;516734;28;1594;-75
2023/07/27 01:01:50;;;;;;;3.35;2.25;;;;;;;;;;515924;28;1313;-75
2023/07/27 01:02:06;;;;;;;3.97;2.40;;;;;;;;;;518352;28;1159;-76
2023/07/27 01:02:22;;;;;;;3.95;2.25;;;;;;;;;;518065;28;1345;-76
2023/07/27 01:02:37;;;;;;;4.25;2.38;;;;;;;;;;515516;28;1441;-75
2023/07/27 01:03:13;;;;;;;4.13;2.50;;;;;;;;;;515949;28;1255;-76
2023/07/27 01:03:29;;;;;;;5.32;2.30;;;;;;;;;;515407;28;1442;-76
2023/07/27 01:03:45;;;;;;;3.30;2.28;;;;;;;;;;514424;28;1294;-76
2023/07/27 01:04:21;;;;;;;3.20;2.30;;;;;;;;;;516075;28;1338;-76
2023/07/27 01:04:37;;;;;;;3.13;2.20;;;;;;;;;;513859;28;1376;-76
2023/07/27 01:05:22;;;;;;;2.58;2.05;;;;;;;;;;516859;28;1061;-76
2023/07/27 01:05:38;;;;;;;3.28;2.20;;;;;;;;;;517103;28;1504;-76
2023/07/27 01:05:54;;;;;;;2.70;2.00;;;;;;;;;;517634;28;1396;-75
2023/07/27 01:06:11;;;;;;;3.17;1.77;;;;;;;;;;518760;28;1046;-75
2023/07/27 01:06:27;;;;;;;3.45;1.95;;;;;;;;;;516602;28;1204;-75
2023/07/27 01:06:42;;;;;;;3.03;1.88;;;;;;;;;;518488;28;1223;-76
2023/07/27 01:06:58;;;;;;;3.40;1.80;;;;;;;;;;516334;28;1295;-76
2023/07/27 01:07:14;;;;;;;3.67;2.13;;;;;;;;;;516549;28;1100;-76
2023/07/27 01:07:29;;;;;;;3.78;2.35;;;;;;;;;;516602;28;1021;-76
2023/07/27 01:07:45;;;;;;;3.20;2.20;;;;;;;;;;516873;28;1273;-75
2023/07/27 01:08:01;;;;;;;2.60;2.10;;;;;;;;;;515438;28;1412;-76
2023/07/27 01:08:17;;;;;;;3.55;2.13;;;;;;;;;;516406;28;1429;-75
2023/07/27 01:08:32;;;;;;;3.67;2.10;;;;;;;;;;517009;28;1274;-75
2023/07/27 01:08:49;;;;;;;3.55;1.98;;;;;;;;;;517389;28;1383;-76
2023/07/27 01:09:04;;;;;;;4.00;2.13;;;;;;;;;;516525;28;1496;-75
2023/07/27 01:09:20;;;;;;;4.70;2.40;;;;;;;;;;515429;28;2006;-75
2023/07/27 01:09:36;;;;;;;4.33;2.40;;;;;;;;;;516434;28;954;-75
2023/07/27 01:09:51;;;;;;;3.30;2.30;;;;;;;;;;516208;28;1333;-75
2023/07/27 01:10:07;;;;;;;3.10;2.20;;;;;;;;;;516860;28;1395;-75
2023/07/27 01:10:33;;;;;;;3.03;2.17;;;;;;;;;;514680;28;1402;-76
2023/07/27 01:11:09;;;;;;;3.20;2.28;;;;;;;;;;516809;28;1634;-76
2023/07/27 01:11:49;;;;;;;3.53;2.20;;;;;;;;;;516523;28;1592;-76
2023/07/27 01:12:13;;;;;;;3.92;2.40;;;;;;;;;;516137;28;1417;-75
2023/07/27 01:13:12;;;;;;;3.30;2.20;;;;;;;;;;515505;28;1259;-75
2023/07/27 01:13:51;;;;;;;3.40;2.22;;;;;;;;;;515989;28;1430;-75
2023/07/27 01:14:12;;;;;;;2.90;2.10;;;;;;;;;;516763;28;1363;-75
2023/07/27 01:14:43;;;;;;;4.13;2.50;;;;;;;;;;517727;28;1379;-76
2023/07/27 01:15:12;;;;;;;3.40;2.28;;;;;;;;;;515908;28;1380;-75
2023/07/27 01:15:31;;;;;;;3.13;2.22;;;;;;;;;;518473;28;1129;-75
2023/07/27 01:15:55;;;;;;;3.50;2.17;;;;;;;;;;517352;28;1464;-75
2023/07/27 01:16:16;;;;;;;3.55;2.10;;;;;;;;;;517484;28;1318;-76
2023/07/27 01:17:30;;;;;;;4.07;2.47;;;;;;;;;;517871;28;1385;-76
2023/07/27 01:18:21;;;;;;;3.78;2.40;;;;;;;;;;519187;28;1227;-76
2023/07/27 01:19:00;;;;;;;3.88;2.30;;;;;;;;;;523160;27;1175;-75
2023/07/27 01:19:21;;;;;;;3.28;2.05;;;;;;;;;;520083;28;1385;-75
2023/07/27 01:19:51;;;;;;;2.83;2.08;;;;;;;;;;519184;28;1377;-76
2023/07/27 01:20:42;;;;;;;3.33;2.30;;;;;;;;;;518259;28;1469;-75
2023/07/27 01:21:20;;;;;;;5.20;2.38;;;;;;;;;;518748;28;938;-76
2023/07/27 01:21:39;;;;;;;3.50;2.20;;;;;;;;;;521054;28;1084;-75
2023/07/27 01:22:21;;;;;;;4.47;2.30;;;;;;;;;;519889;28;1455;-77
2023/07/27 01:22:58;;;;;;;3.05;2.10;;;;;;;;;;519603;28;1574;-76
2023/07/27 01:23:29;;;;;;;4.07;2.30;;;;;;;;;;519598;28;1474;-76
2023/07/27 01:24:19;;;;;;;3.80;2.25;;;;;;;;;;520205;28;1206;-75
2023/07/27 01:24:35;;;;;;;3.53;2.30;;;;;;;;;;513620;28;1358;-77
2023/07/27 01:25:02;;;;;;;3.67;2.30;;;;;;;;;;513425;28;1497;-76
2023/07/27 01:25:29;;;;;;;5.13;2.30;;;;;;;;;;511973;28;1461;-75
2023/07/27 01:26:32;;;;;;;3.88;2.28;;;;;;;;;;517340;28;1525;-75
2023/07/27 01:27:30;;;;;;;4.47;2.13;;;;;;;;;;516323;28;1507;-75
2023/07/27 01:27:52;;;;;;;3.03;2.00;;;;;;;;;;518043;28;1292;-75
2023/07/27 01:28:21;;;;;;;3.03;2.10;;;;;;;;;;519642;28;1381;-76
2023/07/27 01:29:15;;;;;;;3.30;2.20;;;;;;;;;;519817;28;1187;-75
2023/07/27 01:29:47;;;;;;;3.15;2.17;;;;;;;;;;519254;28;1497;-75
2023/07/27 01:30:27;;;;;;;4.13;2.42;;;;;;;;;;517750;28;1452;-76
2023/07/27 01:31:08;;;;;;;3.45;2.22;;;;;;;;;;518464;28;1357;-76
2023/07/27 01:31:27;;;;;;;3.45;2.40;;;;;;;;;;518260;28;905;-76
2023/07/27 01:32:04;;;;;;;2.88;2.40;;;;;;;;;;517885;28;1511;-76
2023/07/27 01:32:22;;;;;;;5.50;2.33;;;;;;;;;;517272;28;1254;-76
2023/07/27 01:32:40;;;;;;;5.03;2.50;;;;;;;;;;518645;28;1385;-75
2023/07/27 01:33:08;;;;;;;2.70;2.35;;;;;;;;;;517101;28;1346;-76
2023/07/27 01:33:32;;;;;;;3.15;2.35;;;;;;;;;;519354;28;1119;-75
2023/07/27 01:33:57;;;;;;;2.92;2.20;;;;;;;;;;518958;28;1410;-76
2023/07/27 01:34:34;;;;;;;4.22;2.33;;;;;;;;;;516121;28;1124;-76
2023/07/27 01:34:56;;;;;;;4.57;2.20;;;;;;;;;;516228;28;1288;-75
2023/07/27 01:35:15;;;;;;;3.80;2.30;;;;;;;;;;514830;28;1211;-76
2023/07/27 01:35:46;;;;;;;4.00;2.30;;;;;;;;;;514465;28;1541;-76
2023/07/27 01:36:20;;;;;;;2.90;2.30;;;;;;;;;;517189;28;1580;-75
2023/07/27 01:36:40;;;;;;;4.38;2.25;;;;;;;;;;519379;28;1339;-75
2023/07/27 01:37:04;;;;;;;3.30;2.08;;;;;;;;;;517273;28;946;-76
2023/07/27 01:37:22;;;;;;;2.60;2.08;;;;;;;;;;516637;28;1227;-76
2023/07/27 01:37:41;;;;;;;2.65;2.00;;;;;;;;;;516214;28;1326;-76
2023/07/27 01:38:17;;;;;;;2.55;1.98;;;;;;;;;;513971;28;1370;-75
2023/07/27 01:38:36;;;;;;;3.00;2.10;;;;;;;;;;514037;28;1313;-75
2023/07/27 01:38:54;;;;;;;2.17;1.90;;;;;;;;;;513685;28;1299;-76
2023/07/27 01:39:13;;;;;;;2.63;1.88;;;;;;;;;;513571;28;1311;-76
2023/07/27 01:39:32;;;;;;;3.10;1.90;;;;;;;;;;513466;28;910;-74
2023/07/27 01:39:51;;;;;;;3.25;2.00;;;;;;;;;;512740;28;1410;-76
2023/07/27 01:40:09;;;;;;;3.22;2.10;;;;;;;;;;513906;28;1453;-76
2023/07/27 01:40:46;;;;;;;2.72;2.20;;;;;;;;;;514701;28;1275;-76
2023/07/27 01:41:04;;;;;;;3.58;2.20;;;;;;;;;;517638;28;1489;-75
2023/07/27 01:41:22;;;;;;;4.00;2.10;;;;;;;;;;516365;28;1460;-76
2023/07/27 01:41:41;;;;;;;3.83;2.03;;;;;;;;;;515646;28;1383;-77
2023/07/27 01:42:18;;;;;;;3.75;2.08;;;;;;;;;;516015;28;1409;-76
2023/07/27 01:42:33;;;;;;;3.35;2.10;;;;;;;;;;516324;28;1255;-75
2023/07/27 01:42:51;;;;;;;3.22;2.20;;;;;;;;;;516415;28;1210;-76
2023/07/27 01:43:07;;;;;;;3.33;2.13;;;;;;;;;;516338;28;1449;-75
2023/07/27 01:43:24;;;;;;;3.38;2.10;;;;;;;;;;516037;28;1414;-74
2023/07/27 01:43:42;;;;;;;2.70;2.00;;;;;;;;;;517086;28;1299;-75
2023/07/27 01:43:59;;;;;;;2.95;1.95;;;;;;;;;;516637;28;1448;-75
2023/07/27 01:44:16;;;;;;;3.93;2.00;;;;;;;;;;516749;28;1284;-75
2023/07/27 01:44:33;;;;;;;2.60;1.88;;;;;;;;;;517412;28;1357;-75
2023/07/27 01:44:50;;;;;;;2.70;1.85;;;;;;;;;;517432;28;1521;-75
2023/07/27 01:45:06;;;;;;;4.57;2.28;;;;;;;;;;518692;28;1469;-76
2023/07/27 01:45:23;;;;;;;5.53;2.63;;;;;;;;;;515399;28;1325;-75
2023/07/27 01:45:39;;;;;;;11.90;3.05;;;;;;;;;;516553;28;1451;-75
2023/07/27 01:45:56;;;;;;;12.80;3.28;;;;;;;;;;515627;28;1501;-75
2023/07/27 01:46:13;;;;;;;10.77;3.30;;;;;;;;;;516988;28;1439;-76
2023/07/27 01:46:30;;;;;;;9.63;3.13;;;;;;;;;;516152;28;1324;-75
2023/07/27 01:46:46;;;;;;;9.38;3.20;;;;;;;;;;514922;28;1399;-76
2023/07/27 01:47:03;;;;;;;7.97;2.92;;;;;;;;;;514313;28;1449;-75
2023/07/27 01:47:21;;;;;;;6.30;2.53;;;;;;;;;;511840;28;1338;-75
2023/07/27 01:48:38;;;;;;;4.13;2.30;;;;;;;;;;515265;28;1265;-75
2023/07/27 01:48:55;;;;;;;3.40;2.20;;;;;;;;;;520781;27;1486;-75
2023/07/27 01:49:13;;;;;;;3.67;2.00;;;;;;;;;;520885;28;1935;-75
2023/07/27 01:49:29;;;;;;;3.72;2.10;;;;;;;;;;520612;28;1361;-76
2023/07/27 01:49:46;;;;;;;2.97;2.03;;;;;;;;;;518664;28;1296;-76
2023/07/27 01:50:02;;;;;;;2.50;1.80;;;;;;;;;;516227;28;1477;-76
2023/07/27 01:50:18;;;;;;;3.25;1.90;;;;;;;;;;513885;28;1310;-76
2023/07/27 01:50:35;;;;;;;3.30;2.08;;;;;;;;;;513930;28;1451;-74
2023/07/27 01:50:51;;;;;;;2.55;1.92;;;;;;;;;;513034;28;1488;-75
2023/07/27 01:51:09;;;;;;;3.15;2.10;;;;;;;;;;513419;28;1412;-75
2023/07/27 01:51:25;;;;;;;3.47;2.20;;;;;;;;;;513130;28;1388;-76
2023/07/27 01:51:42;;;;;;;4.55;2.20;;;;;;;;;;513512;28;1248;-76
2023/07/27 01:51:58;;;;;;;4.32;2.10;;;;;;;;;;511211;28;1552;-75
2023/07/27 01:52:34;;;;;;;3.08;2.20;;;;;;;;;;512952;28;1483;-76
2023/07/27 01:52:52;;;;;;;2.67;2.08;;;;;;;;;;511916;28;1387;-76
2023/07/27 01:53:10;;;;;;;3.33;2.13;;;;;;;;;;511897;28;1397;-75
2023/07/27 01:53:27;;;;;;;3.53;2.20;;;;;;;;;;509995;28;1326;-76
2023/07/27 01:53:45;;;;;;;4.32;2.30;;;;;;;;;;511740;28;1286;-77
2023/07/27 01:54:20;;;;;;;3.47;2.17;;;;;;;;;;511940;28;1578;-75
2023/07/27 01:54:37;;;;;;;3.35;2.20;;;;;;;;;;511204;28;1911;-76
2023/07/27 01:54:55;;;;;;;3.15;2.08;;;;;;;;;;514948;28;1492;-75
2023/07/27 01:55:12;;;;;;;4.13;2.22;;;;;;;;;;517064;28;1061;-75
2023/07/27 01:55:29;;;;;;;4.68;2.47;;;;;;;;;;515736;28;1116;-76
2023/07/27 01:55:46;;;;;;;3.78;2.40;;;;;;;;;;516323;28;1278;-75
2023/07/27 01:56:05;;;;;;;4.03;2.28;;;;;;;;;;518604;28;1520;-76
2023/07/27 01:56:23;;;;;;;4.40;2.28;;;;;;;;;;516688;28;1286;-76
2023/07/27 01:56:40;;;;;;;3.67;2.30;;;;;;;;;;515750;28;1250;-75
2023/07/27 01:56:58;;;;;;;4.00;2.33;;;;;;;;;;517784;28;1338;-77
2023/07/27 01:57:14;;;;;;;3.53;2.30;;;;;;;;;;515982;28;1466;-75
2023/07/27 01:57:30;;;;;;;2.63;2.15;;;;;;;;;;515074;28;1173;-75
2023/07/27 01:57:47;;;;;;;3.63;2.20;;;;;;;;;;514643;28;1274;-75
2023/07/27 01:58:04;;;;;;;3.88;2.30;;;;;;;;;;512062;28;1381;-76
2023/07/27 01:58:21;;;;;;;3.08;2.17;;;;;;;;;;514542;28;1518;-75
2023/07/27 01:59:17;;;;;;;3.72;2.10;;;;;;;;;;515886;28;1192;-76
2023/07/27 02:00:34;;;;;;;3.45;2.25;;;;;;;;;;516536;28;1553;-76
2023/07/27 02:01:30;;;;;;;2.72;2.00;;;;;;;;;;519303;27;1135;-76
2023/07/27 02:01:46;;;;;;;4.88;2.40;;;;;;;;;;520907;27;1495;-76
2023/07/27 02:02:02;;;;;;;4.32;2.30;;;;;;;;;;520314;27;1084;-75
2023/07/27 02:02:18;;;;;;;4.72;2.30;;;;;;;;;;520217;27;1497;-75
2023/07/27 02:03:14;;;;;;;3.95;2.28;;;;;;;;;;518087;28;1320;-76
2023/07/27 02:03:30;;;;;;;4.70;2.40;;;;;;;;;;517305;28;1419;-75
2023/07/27 02:03:48;;;;;;;4.63;2.20;;;;;;;;;;515566;28;1369;-75
2023/07/27 02:04:05;;;;;;;4.47;2.40;;;;;;;;;;516434;28;1612;-76
2023/07/27 02:04:21;;;;;;;4.28;2.45;;;;;;;;;;516470;28;1500;-76
2023/07/27 02:04:37;;;;;;;4.47;2.60;;;;;;;;;;516509;28;1406;-76
2023/07/27 02:04:56;;;;;;;4.10;2.63;;;;;;;;;;516542;28;1325;-75
2023/07/27 02:05:12;;;;;;;3.90;2.38;;;;;;;;;;516067;28;1145;-75
2023/07/27 02:05:28;;;;;;;4.35;2.30;;;;;;;;;;518966;28;1480;-75
2023/07/27 02:05:44;;;;;;;4.90;2.55;;;;;;;;;;516515;28;1500;-75
2023/07/27 02:06:00;;;;;;;4.50;2.70;;;;;;;;;;514399;28;1175;-76
2023/07/27 02:06:16;;;;;;;4.85;2.58;;;;;;;;;;512804;28;1340;-76
2023/07/27 02:06:31;;;;;;;5.25;2.70;;;;;;;;;;511036;28;1271;-76
2023/07/27 02:06:50;;;;;;;5.25;2.80;;;;;;;;;;513752;28;1295;-76
2023/07/27 02:07:06;;;;;;;4.45;2.60;;;;;;;;;;515282;28;1273;-76
2023/07/27 02:07:22;;;;;;;3.60;2.53;;;;;;;;;;515752;28;967;-75
2023/07/27 02:07:37;;;;;;;4.00;2.60;;;;;;;;;;513490;28;1227;-76
2023/07/27 02:07:53;;;;;;;4.53;2.40;;;;;;;;;;512740;28;1242;-76
2023/07/27 02:08:11;;;;;;;4.00;2.50;;;;;;;;;;511527;28;1583;-75